Time;durP1;ratioP1;P1;durP2;ratioP2;P2;SDS_P1;SDS_P2;PMS_P1;PMS_P2;Temp;Humidity;BMP_temperature;BMP_pressure;BME280_temperature;BME280_humidity;BME280_pressure;Samples;Min_cycle;Max_cycle;Signal;HPM_P1;HPM_P2
2022/01/07 00:00:37;;;;;;;297.00;98.20;;;-5.80;99.90;;;;;;5023041;28;20041;-79
2022/01/07 00:03:03;;;;;;;53.05;20.58;;;-5.80;99.90;;;;;;5013642;28;20033;-79
2022/01/07 00:05:29;;;;;;;36.28;13.88;;;-5.80;99.90;;;;;;5031171;28;20029;-79
2022/01/07 00:07:55;;;;;;;64.03;21.83;;;-5.80;99.90;;;;;;5031241;28;20113;-79
2022/01/07 00:10:21;;;;;;;73.90;25.83;;;-5.80;99.90;;;;;;5031307;28;20112;-79
2022/01/07 00:12:48;;;;;;;69.72;24.48;;;-5.90;99.90;;;;;;5028286;28;20028;-79
2022/01/07 00:15:14;;;;;;;60.88;23.05;;;-5.90;99.90;;;;;;5029868;28;20108;-79
2022/01/07 00:17:39;;;;;;;42.20;18.45;;;-5.90;99.90;;;;;;5029624;28;20128;-79
2022/01/07 00:20:09;;;;;;;42.22;16.23;;;-6.00;99.90;;;;;;5029861;28;20044;-79
2022/01/07 00:22:36;;;;;;;51.92;19.45;;;-5.90;99.90;;;;;;5029949;28;20450;-79
2022/01/07 00:25:02;;;;;;;43.90;17.13;;;-6.00;99.90;;;;;;5031081;28;20029;-79
2022/01/07 00:27:27;;;;;;;38.22;16.27;;;-6.00;99.90;;;;;;5029855;28;20021;-79
2022/01/07 00:29:53;;;;;;;51.70;20.58;;;-6.10;99.90;;;;;;5030885;28;20103;-79
2022/01/07 00:32:18;;;;;;;46.95;22.50;;;-6.20;99.90;;;;;;5029738;28;20026;-79
2022/01/07 00:34:44;;;;;;;38.67;18.90;;;-6.20;99.90;;;;;;5030929;28;20100;-79
2022/01/07 00:37:11;;;;;;;61.25;27.63;;;-6.20;99.90;;;;;;5031071;28;20030;-80
2022/01/07 00:39:37;;;;;;;56.97;25.77;;;-6.20;99.90;;;;;;5029560;28;20444;-79
2022/01/07 00:42:03;;;;;;;42.97;18.17;;;-6.30;99.90;;;;;;5029785;28;20049;-79
2022/01/07 00:44:29;;;;;;;25.57;13.23;;;-6.30;99.90;;;;;;5030655;28;20018;-79
2022/01/07 00:46:54;;;;;;;24.13;13.30;;;-6.40;99.90;;;;;;5029662;28;20028;-79
2022/01/07 00:49:22;;;;;;;31.30;15.90;;;-6.40;99.90;;;;;;5029718;28;20038;-79
2022/01/07 00:51:49;;;;;;;28.45;14.30;;;-6.60;99.90;;;;;;5033408;28;20033;-79
2022/01/07 00:54:15;;;;;;;31.30;16.60;;;-6.60;99.90;;;;;;5034663;28;20029;-79
2022/01/07 00:56:40;;;;;;;28.03;15.07;;;-6.70;99.90;;;;;;5033291;28;20101;-79
2022/01/07 00:59:06;;;;;;;44.37;20.33;;;-6.80;99.90;;;;;;5034593;28;20395;-79
2022/01/07 01:01:32;;;;;;;44.53;20.57;;;-6.90;99.90;;;;;;5033242;28;20475;-79
2022/01/07 01:03:57;;;;;;;28.93;16.53;;;-6.90;99.90;;;;;;5033235;28;20028;-79
2022/01/07 01:06:23;;;;;;;68.33;30.90;;;-6.90;99.90;;;;;;5034461;28;20052;-79
2022/01/07 01:08:48;;;;;;;80.50;31.80;;;-7.00;99.90;;;;;;5034270;28;20399;-79
2022/01/07 01:11:14;;;;;;;43.60;21.43;;;-7.00;99.90;;;;;;5033376;28;20120;-79
2022/01/07 01:13:39;;;;;;;33.17;16.73;;;-7.10;99.90;;;;;;5033052;28;20017;-78
2022/01/07 01:16:05;;;;;;;38.60;16.50;;;-7.10;99.90;;;;;;5032935;28;20025;-79
2022/01/07 01:18:31;;;;;;;32.83;16.73;;;-7.10;99.90;;;;;;5034083;28;20037;-79
2022/01/07 01:20:56;;;;;;;30.33;15.25;;;-7.20;99.90;;;;;;5032852;28;20018;-79
2022/01/07 01:23:22;;;;;;;30.60;17.23;;;-7.20;99.90;;;;;;5032860;28;20048;-79
2022/01/07 01:25:48;;;;;;;32.20;16.60;;;-7.30;99.90;;;;;;5034071;28;20017;-79
2022/01/07 01:28:13;;;;;;;33.67;16.00;;;-7.40;99.90;;;;;;5034087;28;20431;-79
2022/01/07 01:30:39;;;;;;;32.47;14.57;;;-7.40;99.90;;;;;;5033811;28;20049;-79
2022/01/07 01:33:05;;;;;;;35.37;18.43;;;-7.50;99.90;;;;;;5034096;28;20021;-79
2022/01/07 01:35:30;;;;;;;31.20;15.23;;;-7.50;99.90;;;;;;5033861;28;20037;-79
2022/01/07 01:37:56;;;;;;;33.23;16.20;;;-7.60;99.90;;;;;;5033865;28;20032;-79
2022/01/07 01:40:23;;;;;;;32.83;17.23;;;-7.60;99.90;;;;;;5032505;28;20037;-80
2022/01/07 01:42:52;;;;;;;41.33;21.37;;;-7.80;99.90;;;;;;5032447;28;20048;-79
2022/01/07 01:45:18;;;;;;;44.70;21.80;;;-7.90;99.90;;;;;;5032476;28;20056;-79
2022/01/07 01:47:44;;;;;;;54.57;26.40;;;-8.00;99.90;;;;;;5032385;28;20483;-79
2022/01/07 01:50:11;;;;;;;56.63;26.27;;;-8.00;99.90;;;;;;5032273;28;20172;-79
2022/01/07 01:52:37;;;;;;;51.93;21.47;;;-8.00;99.90;;;;;;5032221;28;20032;-79
2022/01/07 01:55:04;;;;;;;31.73;18.27;;;-8.00;99.90;;;;;;5032262;28;20026;-79
2022/01/07 01:57:31;;;;;;;38.60;19.97;;;-8.00;99.90;;;;;;5032135;28;20042;-79
2022/01/07 01:59:58;;;;;;;36.73;18.90;;;-8.00;99.90;;;;;;5032166;28;20018;-79
2022/01/07 02:02:24;;;;;;;48.20;19.57;;;-8.00;99.90;;;;;;5031015;28;20327;-79
2022/01/07 02:04:49;;;;;;;41.60;20.27;;;-8.10;99.90;;;;;;5033359;28;20109;-79
2022/01/07 02:07:15;;;;;;;44.63;19.90;;;-8.10;99.90;;;;;;5032124;28;20021;-79
2022/01/07 02:09:40;;;;;;;47.20;19.63;;;-8.10;99.90;;;;;;5031811;28;20067;-79
2022/01/07 02:12:08;;;;;;;37.50;17.50;;;-8.10;99.90;;;;;;5033358;28;20076;-79
2022/01/07 02:14:35;;;;;;;43.73;19.03;;;-8.20;99.90;;;;;;5033107;28;20056;-79
2022/01/07 02:17:10;;;;;;;63.43;27.10;;;-8.20;99.90;;;;;;5031890;28;20025;-79
2022/01/07 02:19:37;;;;;;;55.60;23.37;;;-8.30;99.90;;;;;;5033026;28;20480;-79
2022/01/07 02:22:04;;;;;;;58.40;26.70;;;-8.30;99.90;;;;;;5033145;28;20026;-79
2022/01/07 02:24:30;;;;;;;46.03;22.43;;;-8.30;99.90;;;;;;5031632;28;20017;-79
2022/01/07 02:26:56;;;;;;;42.93;20.00;;;-8.40;99.90;;;;;;5031636;28;20038;-79
2022/01/07 02:29:21;;;;;;;54.13;23.47;;;-8.50;99.90;;;;;;5031475;28;20533;-79
2022/01/07 02:31:48;;;;;;;91.43;34.47;;;-8.50;99.90;;;;;;5031516;28;20621;-79
2022/01/07 02:34:13;;;;;;;83.70;29.73;;;-8.60;99.90;;;;;;5032879;28;20017;-79
2022/01/07 02:36:39;;;;;;;73.13;27.23;;;-8.70;99.90;;;;;;5032753;28;20081;-79
2022/01/07 02:39:04;;;;;;;64.17;26.00;;;-8.70;99.90;;;;;;5032717;28;20390;-79
2022/01/07 02:41:31;;;;;;;54.00;22.40;;;-8.70;99.90;;;;;;5031395;28;20041;-79
2022/01/07 02:43:57;;;;;;;51.13;21.13;;;-8.70;99.90;;;;;;5031361;28;20026;-79
2022/01/07 02:46:22;;;;;;;49.87;19.10;;;-8.70;99.90;;;;;;5032916;28;20467;-79
2022/01/07 02:48:48;;;;;;;47.70;21.10;;;-8.70;99.90;;;;;;5031075;28;20026;-79
2022/01/07 02:51:14;;;;;;;42.97;19.03;;;-8.70;99.90;;;;;;5031238;28;20025;-79
2022/01/07 02:53:39;;;;;;;37.93;17.63;;;-8.70;99.90;;;;;;5031111;28;20018;-79
2022/01/07 02:56:05;;;;;;;54.37;22.00;;;-8.70;99.90;;;;;;5032369;28;20029;-79
2022/01/07 02:58:31;;;;;;;57.40;24.03;;;-8.70;99.90;;;;;;5032281;28;20056;-79
2022/01/07 03:00:57;;;;;;;60.07;25.90;;;-8.80;99.90;;;;;;5030924;28;20036;-79
2022/01/07 03:03:22;;;;;;;58.60;26.80;;;-8.80;99.90;;;;;;5031069;28;20028;-79
2022/01/07 03:05:48;;;;;;;71.53;27.53;;;-8.80;99.90;;;;;;5032159;28;20479;-79
2022/01/07 03:08:13;;;;;;;72.57;30.73;;;-8.90;99.90;;;;;;5030946;28;20349;-79
2022/01/07 03:10:39;;;;;;;85.60;35.87;;;-8.90;99.90;;;;;;5031956;28;20060;-79
2022/01/07 03:13:05;;;;;;;82.70;36.97;;;-8.90;99.90;;;;;;5030585;28;20072;-78
2022/01/07 03:15:33;;;;;;;89.40;37.87;;;-9.00;99.90;;;;;;5030640;28;20038;-79
2022/01/07 03:17:58;;;;;;;104.23;42.20;;;-9.00;99.90;;;;;;5032283;28;20122;-79
2022/01/07 03:20:24;;;;;;;112.93;44.90;;;-9.00;99.90;;;;;;5030513;28;20575;-79
2022/01/07 03:22:50;;;;;;;108.77;45.60;;;-9.10;99.90;;;;;;5030634;28;20033;-79
2022/01/07 03:25:16;;;;;;;123.90;49.00;;;-9.10;99.90;;;;;;5031810;28;20033;-79
2022/01/07 03:27:42;;;;;;;118.20;47.07;;;-9.10;99.90;;;;;;5031804;28;20120;-79
2022/01/07 03:30:10;;;;;;;108.93;44.40;;;-9.10;99.90;;;;;;5031746;28;20034;-79
2022/01/07 03:32:36;;;;;;;129.77;50.43;;;-9.20;99.90;;;;;;5030371;28;20021;-78
2022/01/07 03:35:03;;;;;;;126.00;51.23;;;-9.20;99.90;;;;;;5030445;28;20037;-79
2022/01/07 03:37:29;;;;;;;127.27;50.13;;;-9.20;99.90;;;;;;5031534;28;20033;-79
2022/01/07 03:39:54;;;;;;;117.50;50.37;;;-9.20;99.90;;;;;;5031165;28;20025;-79
2022/01/07 03:42:20;;;;;;;114.27;46.70;;;-9.30;99.90;;;;;;5026173;28;20025;-79
2022/01/07 03:44:46;;;;;;;118.70;46.23;;;-9.30;99.90;;;;;;5030082;28;20029;-79
2022/01/07 03:47:12;;;;;;;108.93;46.53;;;-9.30;99.90;;;;;;5030291;28;20392;-79
2022/01/07 03:49:38;;;;;;;116.90;43.33;;;-9.30;99.90;;;;;;5031295;28;20044;-79
2022/01/07 03:52:04;;;;;;;96.90;38.70;;;-9.30;99.90;;;;;;5031540;28;20021;-79
2022/01/07 03:54:30;;;;;;;79.23;32.47;;;-9.40;99.90;;;;;;5013518;28;20483;-79
2022/01/07 03:56:55;;;;;;;80.57;32.37;;;-9.40;99.90;;;;;;5031359;28;20025;-79
2022/01/07 03:59:21;;;;;;;76.93;31.70;;;-9.40;99.90;;;;;;5020323;28;20029;-79
2022/01/07 04:01:46;;;;;;;72.77;33.30;;;-9.40;99.90;;;;;;5031414;28;20017;-79
2022/01/07 04:04:12;;;;;;;77.10;33.03;;;-9.40;99.90;;;;;;5029984;28;20423;-79
2022/01/07 04:06:38;;;;;;;92.20;33.60;;;-9.40;99.90;;;;;;5031207;28;20021;-79
2022/01/07 04:09:04;;;;;;;80.57;31.60;;;-9.50;99.90;;;;;;5031235;28;20049;-79
2022/01/07 04:11:29;;;;;;;94.60;35.43;;;-9.50;99.90;;;;;;5029916;28;20060;-79
2022/01/07 04:13:55;;;;;;;73.47;31.97;;;-9.60;99.90;;;;;;5030003;28;20035;-79
2022/01/07 04:16:20;;;;;;;63.47;26.30;;;-9.60;99.90;;;;;;5031121;28;20029;-79
2022/01/07 04:18:46;;;;;;;62.47;23.30;;;-9.60;99.90;;;;;;5031090;28;20021;-79
2022/01/07 04:21:12;;;;;;;46.47;20.80;;;-9.60;99.90;;;;;;5029922;28;20490;-78
2022/01/07 04:23:37;;;;;;;59.07;25.23;;;-9.60;99.90;;;;;;5031045;28;20025;-78
2022/01/07 04:26:03;;;;;;;63.17;24.67;;;-9.60;99.90;;;;;;5034312;28;20423;-78
2022/01/07 04:28:29;;;;;;;49.10;22.53;;;-9.60;99.90;;;;;;5035075;28;20014;-79
2022/01/07 04:30:54;;;;;;;52.63;21.77;;;-9.60;99.90;;;;;;5017382;28;20021;-78
2022/01/07 04:33:26;;;;;;;45.57;20.77;;;-9.60;99.90;;;;;;5017387;28;20493;-78
2022/01/07 04:35:54;;;;;;;54.35;21.33;;;-9.70;99.90;;;;;;5035027;28;20039;-78
2022/01/07 04:38:19;;;;;;;51.87;20.73;;;-9.60;99.90;;;;;;5017017;28;20150;-79
2022/01/07 04:40:45;;;;;;;52.57;22.40;;;-9.70;99.90;;;;;;5017146;28;20109;-79
2022/01/07 04:43:11;;;;;;;56.60;24.20;;;-9.70;99.90;;;;;;5017167;28;20482;-79
2022/01/07 04:45:36;;;;;;;60.70;26.40;;;-9.80;99.90;;;;;;5017073;28;20029;-79
2022/01/07 04:48:02;;;;;;;42.33;20.63;;;-9.80;99.90;;;;;;5017135;28;20018;-78
2022/01/07 04:50:28;;;;;;;50.97;21.37;;;-10.00;99.90;;;;;;5034534;28;20037;-79
2022/01/07 04:52:54;;;;;;;42.47;17.03;;;-10.00;99.90;;;;;;5016944;28;20018;-78
2022/01/07 04:55:23;;;;;;;49.50;19.13;;;-10.10;99.90;;;;;;5034640;28;20021;-78
2022/01/07 04:57:50;;;;;;;38.63;18.00;;;-10.10;99.90;;;;;;5034600;28;20029;-78
2022/01/07 05:00:17;;;;;;;47.83;19.97;;;-10.10;99.90;;;;;;5034542;28;20098;-78
2022/01/07 05:02:43;;;;;;;72.03;30.20;;;-10.10;99.90;;;;;;5032444;28;20113;-78
2022/01/07 05:05:09;;;;;;;81.27;35.70;;;-10.10;99.90;;;;;;5034421;28;20574;-79
2022/01/07 05:07:36;;;;;;;78.23;30.03;;;-10.10;99.90;;;;;;5033209;28;20022;-79
2022/01/07 05:10:04;;;;;;;78.17;29.13;;;-10.10;99.90;;;;;;5032982;28;20124;-79
2022/01/07 05:12:30;;;;;;;75.27;28.93;;;-10.10;99.90;;;;;;5032915;28;20399;-78
2022/01/07 05:14:55;;;;;;;78.73;32.13;;;-10.10;99.90;;;;;;5032925;28;20025;-78
2022/01/07 05:17:21;;;;;;;72.63;28.83;;;-10.10;99.90;;;;;;5033031;28;20032;-78
2022/01/07 05:19:46;;;;;;;69.67;30.30;;;-10.10;99.90;;;;;;5032949;28;20446;-78
2022/01/07 05:22:12;;;;;;;83.40;32.93;;;-10.00;99.90;;;;;;5034520;28;20510;-79
2022/01/07 05:24:38;;;;;;;57.33;25.70;;;-10.00;99.90;;;;;;5034136;28;20029;-78
2022/01/07 05:27:04;;;;;;;61.70;25.57;;;-10.10;99.90;;;;;;5034100;28;20029;-78
2022/01/07 05:29:33;;;;;;;83.23;31.47;;;-10.10;99.90;;;;;;5033875;28;20033;-78
2022/01/07 05:31:59;;;;;;;103.73;35.60;;;-10.10;99.90;;;;;;5034352;28;20028;-79
2022/01/07 05:34:25;;;;;;;69.87;26.70;;;-10.00;99.90;;;;;;5032631;28;20026;-78
2022/01/07 05:36:51;;;;;;;74.93;28.20;;;-10.00;99.90;;;;;;5032465;28;20060;-78
2022/01/07 05:39:16;;;;;;;81.97;30.00;;;-10.10;99.90;;;;;;5032572;28;20064;-78
2022/01/07 05:41:42;;;;;;;82.47;32.50;;;-10.10;99.90;;;;;;5032503;28;20030;-79
2022/01/07 05:44:07;;;;;;;76.50;29.13;;;-10.00;99.90;;;;;;5030987;28;20025;-78
2022/01/07 05:46:33;;;;;;;81.47;31.33;;;-10.10;99.90;;;;;;5033502;28;20033;-79
2022/01/07 05:48:58;;;;;;;81.50;32.43;;;-10.10;99.90;;;;;;5034022;28;20025;-79
2022/01/07 05:51:24;;;;;;;87.23;33.13;;;-10.10;99.90;;;;;;5015604;28;20029;-79
2022/01/07 05:53:49;;;;;;;132.57;43.10;;;-10.10;99.90;;;;;;5015476;28;20025;-79
2022/01/07 05:56:16;;;;;;;126.00;43.30;;;-10.20;99.90;;;;;;5033435;28;20482;-78
2022/01/07 05:58:41;;;;;;;151.83;50.07;;;-10.20;99.90;;;;;;5015663;28;20072;-79
2022/01/07 06:01:09;;;;;;;120.00;41.73;;;-10.20;99.90;;;;;;5033382;28;20052;-78
2022/01/07 06:03:35;;;;;;;175.73;49.47;;;-10.20;99.90;;;;;;5033393;28;20036;-79
2022/01/07 06:06:01;;;;;;;174.93;49.87;;;-10.20;99.90;;;;;;5033307;28;20398;-79
2022/01/07 06:08:26;;;;;;;187.10;52.47;;;-10.30;99.90;;;;;;5033271;28;20387;-78
2022/01/07 06:10:52;;;;;;;219.30;70.23;;;-10.30;99.90;;;;;;5033150;28;20045;-79
2022/01/07 06:13:17;;;;;;;267.73;74.73;;;-10.30;99.90;;;;;;5033287;28;20017;-79
2022/01/07 06:15:43;;;;;;;207.13;60.60;;;-10.30;99.90;;;;;;4896394;28;20579;-79
2022/01/07 06:18:08;;;;;;;198.97;58.10;;;-10.30;99.90;;;;;;5032415;28;20030;-79
2022/01/07 06:20:34;;;;;;;362.43;109.77;;;-10.40;99.90;;;;;;5025460;28;20124;-78
2022/01/07 06:23:00;;;;;;;489.73;162.03;;;-10.40;99.90;;;;;;5037726;28;20066;-79
2022/01/07 06:25:25;;;;;;;412.33;128.17;;;-10.40;99.90;;;;;;5038396;28;20022;-79
2022/01/07 06:27:51;;;;;;;409.90;126.60;;;-10.40;99.90;;;;;;5019992;28;20446;-78
2022/01/07 06:30:17;;;;;;;347.17;106.40;;;-10.40;99.90;;;;;;5018071;28;20426;-80
2022/01/07 06:32:42;;;;;;;339.30;99.43;;;-10.40;99.90;;;;;;5051514;28;20027;-80
2022/01/07 06:35:11;;;;;;;259.37;81.90;;;-10.40;99.90;;;;;;5020445;28;20035;-78
2022/01/07 06:37:38;;;;;;;174.67;54.77;;;-10.40;99.90;;;;;;5022716;28;20044;-78
2022/01/07 06:40:05;;;;;;;102.17;33.57;;;-10.40;99.90;;;;;;5042890;28;20025;-80
2022/01/07 06:42:31;;;;;;;98.83;33.67;;;-10.40;99.90;;;;;;5022207;28;20035;-80
2022/01/07 06:44:57;;;;;;;92.17;32.33;;;-10.50;99.90;;;;;;5042584;28;20397;-80
2022/01/07 06:47:23;;;;;;;84.33;30.93;;;-10.50;99.90;;;;;;5040050;28;20032;-80
2022/01/07 06:49:49;;;;;;;84.03;33.03;;;-10.40;99.90;;;;;;5041747;28;20394;-80
2022/01/07 06:52:14;;;;;;;100.53;35.70;;;-10.40;99.90;;;;;;5024794;28;20100;-80
2022/01/07 06:54:40;;;;;;;96.10;34.17;;;-10.40;99.90;;;;;;5042051;28;20017;-79
2022/01/07 06:57:06;;;;;;;111.70;38.20;;;-10.50;99.90;;;;;;5023610;28;20017;-80
2022/01/07 06:59:31;;;;;;;100.27;37.23;;;-10.40;99.90;;;;;;5042795;28;20120;-80
2022/01/07 07:01:57;;;;;;;92.67;32.50;;;-10.40;99.90;;;;;;5053325;28;20032;-80
2022/01/07 07:04:23;;;;;;;85.37;34.00;;;-10.30;99.90;;;;;;5022645;28;20021;-80
2022/01/07 07:06:49;;;;;;;99.73;37.50;;;-10.30;99.90;;;;;;5041989;28;20051;-78
2022/01/07 07:09:17;;;;;;;95.97;39.20;;;-10.20;99.90;;;;;;5019378;28;20561;-80
2022/01/07 07:11:43;;;;;;;125.17;48.03;;;-10.30;99.90;;;;;;5036793;28;20085;-80
2022/01/07 07:14:09;;;;;;;171.63;56.33;;;-10.30;99.90;;;;;;5019480;28;20505;-80
2022/01/07 07:16:35;;;;;;;184.83;62.23;;;-10.30;99.90;;;;;;5053373;28;20024;-80
2022/01/07 07:19:00;;;;;;;160.57;58.13;;;-10.30;99.90;;;;;;5037065;28;20017;-80
2022/01/07 07:21:26;;;;;;;184.67;61.03;;;-10.30;99.90;;;;;;5036619;28;20098;-80
2022/01/07 07:23:52;;;;;;;167.17;58.37;;;-10.30;99.90;;;;;;5055456;28;20013;-80
2022/01/07 07:26:18;;;;;;;176.30;55.57;;;-10.20;99.90;;;;;;5034699;28;20024;-79
2022/01/07 07:28:44;;;;;;;136.07;52.37;;;-10.20;99.90;;;;;;5037709;28;20385;-80
2022/01/07 07:31:13;;;;;;;130.17;47.20;;;-10.10;99.90;;;;;;5020231;28;20105;-80
2022/01/07 07:36:27;;;;;;;131.47;48.50;;;-9.90;99.90;;;;;;5039243;28;20036;-80
2022/01/07 07:38:54;;;;;;;108.03;43.30;;;-9.80;99.90;;;;;;5038355;28;20458;-80
2022/01/07 07:41:19;;;;;;;106.00;41.67;;;-9.70;99.90;;;;;;5033546;28;20025;-80
2022/01/07 07:43:50;;;;;;;97.33;41.77;;;-9.60;99.90;;;;;;5067094;28;20155;-80
2022/01/07 07:46:16;;;;;;;141.00;61.83;;;-9.50;99.90;;;;;;5016273;28;20034;-77
2022/01/07 07:48:42;;;;;;;265.87;94.40;;;-9.30;99.90;;;;;;5031221;28;20026;-78
2022/01/07 07:51:07;;;;;;;207.83;84.27;;;-9.20;99.90;;;;;;5013931;28;20031;-78
2022/01/07 07:53:33;;;;;;;203.90;76.67;;;-9.00;99.90;;;;;;5013646;28;20488;-77
2022/01/07 07:55:59;;;;;;;204.73;79.17;;;-8.80;99.90;;;;;;5030898;28;20017;-78
2022/01/07 07:58:27;;;;;;;158.77;66.20;;;-8.70;99.90;;;;;;5066432;28;20475;-77
2022/01/07 08:00:53;;;;;;;204.87;72.47;;;-8.60;99.90;;;;;;5050444;28;20009;-78
2022/01/07 08:03:21;;;;;;;216.97;78.93;;;-8.40;99.90;;;;;;5016609;28;20387;-78
2022/01/07 08:05:47;;;;;;;193.57;73.83;;;-8.20;99.90;;;;;;5029770;28;20022;-77
2022/01/07 08:08:12;;;;;;;259.70;103.73;;;-8.10;99.90;;;;;;5027310;28;20100;-78
2022/01/07 08:10:45;;;;;;;286.87;112.97;;;-8.00;99.90;;;;;;5011900;28;20040;-78
2022/01/07 08:18:23;;;;;;;306.17;126.60;;;-7.60;99.90;;;;;;5015786;28;20044;-77
2022/01/07 08:20:50;;;;;;;299.17;120.23;;;-7.40;99.90;;;;;;5013853;28;20025;-77
2022/01/07 08:23:16;;;;;;;320.97;133.73;;;-7.20;99.90;;;;;;5012085;28;20495;-77
2022/01/07 08:25:42;;;;;;;327.17;141.40;;;-7.00;99.90;;;;;;5011830;28;20068;-77
2022/01/07 08:28:09;;;;;;;298.87;125.10;;;-6.90;99.90;;;;;;5030641;28;20025;-77
2022/01/07 08:30:59;;;;;;;230.40;101.03;;;-6.70;99.90;;;;;;5029696;28;20045;-77
2022/01/07 08:36:08;;;;;;;319.77;136.03;;;-6.40;99.90;;;;;;5032651;28;20562;-77
2022/01/07 08:38:34;;;;;;;269.45;118.07;;;-6.20;99.90;;;;;;5050781;28;20092;-77
2022/01/07 08:40:59;;;;;;;272.17;114.57;;;-6.00;99.90;;;;;;5031079;28;20099;-77
2022/01/07 08:43:25;;;;;;;241.77;101.53;;;-5.90;99.90;;;;;;5013171;28;20033;-77
2022/01/07 08:45:51;;;;;;;209.32;85.53;;;-5.80;99.90;;;;;;5031070;28;20471;-77
2022/01/07 08:48:16;;;;;;;179.50;80.47;;;-5.60;99.90;;;;;;5016753;28;20024;-78
2022/01/07 08:50:44;;;;;;;148.73;65.30;;;-5.50;99.90;;;;;;5051020;28;20037;-77
2022/01/07 08:53:10;;;;;;;144.25;61.38;;;-5.30;99.90;;;;;;5013133;28;20026;-77
2022/01/07 08:55:36;;;;;;;146.55;60.78;;;-5.20;99.90;;;;;;5037269;28;20037;-77
2022/01/07 08:58:02;;;;;;;140.25;60.58;;;-5.00;99.90;;;;;;5023616;28;20027;-77
2022/01/07 09:00:27;;;;;;;165.07;67.28;;;-4.80;99.90;;;;;;5047396;28;20014;-77
2022/01/07 09:02:53;;;;;;;151.00;65.68;;;-4.70;99.90;;;;;;5038421;28;20104;-78
2022/01/07 09:05:18;;;;;;;144.73;61.05;;;-4.50;99.90;;;;;;5023348;28;20017;-77
2022/01/07 09:07:44;;;;;;;129.57;53.15;;;-4.30;99.90;;;;;;5018858;28;20018;-78
2022/01/07 09:10:10;;;;;;;120.50;46.67;;;-4.20;99.90;;;;;;5033172;28;20068;-77
2022/01/07 09:12:35;;;;;;;100.38;42.55;;;-4.00;99.90;;;;;;5025990;28;20049;-77
2022/01/07 09:15:01;;;;;;;84.95;37.83;;;-3.80;99.90;;;;;;5043434;28;20036;-77
2022/01/07 09:17:30;;;;;;;70.30;31.98;;;-3.70;99.90;;;;;;5058014;28;20022;-78
2022/01/07 09:19:55;;;;;;;47.83;21.75;;;-3.60;99.90;;;;;;5023058;28;20785;-77
2022/01/07 09:22:21;;;;;;;47.55;21.02;;;-3.50;99.90;;;;;;5024262;28;20018;-77
2022/01/07 09:24:46;;;;;;;46.22;20.90;;;-3.30;97.50;;;;;;5025645;28;20074;-78
2022/01/07 09:27:12;;;;;;;37.70;18.42;;;-3.30;93.90;;;;;;5040442;28;20057;-78
2022/01/07 09:29:38;;;;;;;35.47;16.92;;;-3.10;92.50;;;;;;5041581;28;20033;-78
2022/01/07 09:32:04;;;;;;;44.03;22.05;;;-3.00;90.90;;;;;;5025296;28;20045;-78
2022/01/07 09:34:29;;;;;;;45.72;20.33;;;-3.00;87.60;;;;;;5044023;28;20577;-78
2022/01/07 09:36:55;;;;;;;49.60;19.90;;;-2.90;85.40;;;;;;5026793;28;20132;-78
2022/01/07 09:39:20;;;;;;;56.80;26.40;;;-2.80;83.30;;;;;;5046101;28;20486;-78
2022/01/07 09:41:46;;;;;;;47.42;22.48;;;-2.80;82.00;;;;;;5045802;28;20111;-78
2022/01/07 09:44:12;;;;;;;54.05;21.80;;;-2.70;81.20;;;;;;5022325;28;20010;-78
2022/01/07 09:46:40;;;;;;;52.00;23.45;;;-2.70;81.90;;;;;;5022909;28;20487;-78
2022/01/07 09:49:06;;;;;;;53.70;20.73;;;-2.60;83.40;;;;;;5026597;28;20330;-78
2022/01/07 09:51:32;;;;;;;40.65;17.58;;;-2.50;84.90;;;;;;5038527;28;21121;-78
2022/01/07 09:54:02;;;;;;;38.75;17.05;;;-2.50;85.70;;;;;;5040366;28;20014;-78
2022/01/07 09:56:28;;;;;;;25.83;11.73;;;-2.40;83.80;;;;;;5037794;28;20021;-78
2022/01/07 09:58:53;;;;;;;27.38;14.57;;;-2.40;80.60;;;;;;5047395;28;20035;-78
2022/01/07 10:01:21;;;;;;;27.33;12.95;;;-2.40;79.10;;;;;;5033276;28;20064;-78
2022/01/07 10:03:46;;;;;;;18.25;9.20;;;-2.30;79.10;;;;;;5047027;28;20075;-78
2022/01/07 10:06:26;;;;;;;23.50;11.20;;;-2.30;79.50;;;;;;5014165;28;20018;-78
2022/01/07 10:09:00;;;;;;;26.92;12.55;;;-2.30;77.70;;;;;;5031462;28;20068;-78
2022/01/07 10:11:26;;;;;;;26.00;13.00;;;-2.30;76.20;;;;;;5014514;28;20112;-77
2022/01/07 10:14:19;;;;;;;32.55;13.55;;;-2.20;73.60;;;;;;5015459;28;20025;-77
2022/01/07 10:16:58;;;;;;;36.03;16.52;;;-2.10;73.60;;;;;;5033225;28;20445;-78
2022/01/07 10:19:35;;;;;;;29.08;13.05;;;-2.00;73.70;;;;;;5019810;28;20116;-77
2022/01/07 10:22:09;;;;;;;25.58;12.68;;;-1.90;73.70;;;;;;5033630;28;20565;-78
2022/01/07 10:24:55;;;;;;;35.08;16.00;;;-1.80;72.80;;;;;;5031722;28;20049;-78
2022/01/07 10:27:22;;;;;;;29.33;11.68;;;-1.80;72.70;;;;;;5031021;28;20116;-77
2022/01/07 10:29:47;;;;;;;20.73;10.98;;;-1.70;70.00;;;;;;5013444;28;20495;-78
2022/01/07 10:32:23;;;;;;;23.30;10.52;;;-1.60;68.70;;;;;;5031657;28;20033;-77
2022/01/07 10:35:07;;;;;;;15.02;8.68;;;-1.50;68.70;;;;;;5044546;28;20095;-78
2022/01/07 10:37:35;;;;;;;21.35;9.38;;;-1.50;65.80;;;;;;5045057;28;20040;-78
2022/01/07 10:40:18;;;;;;;17.73;9.35;;;-1.50;65.40;;;;;;5013765;28;20032;-78
2022/01/07 10:42:43;;;;;;;21.13;8.93;;;-1.40;66.40;;;;;;5031857;28;20495;-77
2022/01/07 10:45:09;;;;;;;16.23;9.05;;;-1.30;63.90;;;;;;5031927;28;20025;-78
2022/01/07 10:47:35;;;;;;;17.00;8.10;;;-1.30;63.80;;;;;;5013188;28;20037;-78
2022/01/07 10:50:22;;;;;;;20.45;10.00;;;-1.20;63.10;;;;;;5031368;28;20026;-77
2022/01/07 10:52:47;;;;;;;17.90;9.93;;;-1.10;63.10;;;;;;5030277;28;20060;-77
2022/01/07 10:55:21;;;;;;;23.10;10.60;;;-1.10;63.30;;;;;;5031397;28;20022;-77
2022/01/07 10:57:49;;;;;;;22.13;10.73;;;-1.00;62.90;;;;;;5015310;28;20028;-78
2022/01/07 11:00:17;;;;;;;20.67;11.77;;;-1.00;62.00;;;;;;5049912;28;20044;-77
2022/01/07 11:02:43;;;;;;;18.67;9.38;;;-0.90;60.40;;;;;;5010447;28;20018;-77
2022/01/07 11:05:09;;;;;;;20.92;10.40;;;-0.90;59.00;;;;;;5031437;28;20033;-77
2022/01/07 11:07:38;;;;;;;18.33;9.63;;;-0.80;59.10;;;;;;5032179;28;20047;-77
2022/01/07 11:10:06;;;;;;;20.95;9.82;;;-0.80;58.60;;;;;;5013254;28;20044;-77
2022/01/07 11:12:32;;;;;;;15.23;8.25;;;-0.70;60.90;;;;;;5013010;28;20105;-78
2022/01/07 11:14:59;;;;;;;19.02;8.63;;;-0.70;58.80;;;;;;5012719;28;20108;-78
2022/01/07 11:17:26;;;;;;;15.98;8.70;;;-0.60;57.80;;;;;;5013167;28;20347;-77
2022/01/07 11:19:55;;;;;;;14.73;8.27;;;-0.60;56.30;;;;;;5012439;28;20144;-78
2022/01/07 11:22:22;;;;;;;18.27;9.50;;;-0.60;56.00;;;;;;5028309;28;20483;-78
2022/01/07 11:24:51;;;;;;;18.95;9.48;;;-0.60;57.70;;;;;;5030929;28;20453;-78
2022/01/07 11:27:22;;;;;;;20.13;10.15;;;-0.60;56.40;;;;;;5012788;28;20048;-78
2022/01/07 11:30:10;;;;;;;20.73;9.85;;;-0.50;55.20;;;;;;5013190;28;20041;-77
2022/01/07 11:32:46;;;;;;;15.52;8.13;;;-0.50;55.90;;;;;;5012663;28;20160;-77
2022/01/07 11:35:18;;;;;;;13.30;6.20;;;-0.40;54.60;;;;;;5011285;28;20022;-77
2022/01/07 11:37:46;;;;;;;19.93;10.50;;;-0.40;54.90;;;;;;5045255;28;20040;-78
2022/01/07 11:40:33;;;;;;;16.08;7.28;;;-0.40;54.30;;;;;;5012844;28;20690;-77
2022/01/07 11:43:00;;;;;;;17.45;8.07;;;-0.30;54.90;;;;;;5031718;28;20057;-77
2022/01/07 11:45:34;;;;;;;16.70;8.55;;;-0.30;54.90;;;;;;5013728;28;20116;-77
2022/01/07 11:48:14;;;;;;;13.60;8.80;;;-0.30;55.30;;;;;;5031515;28;20026;-78
2022/01/07 11:51:10;;;;;;;15.48;8.70;;;-0.30;56.20;;;;;;5013607;28;20037;-77
2022/01/07 11:53:35;;;;;;;15.60;7.75;;;-0.20;56.00;;;;;;5013241;28;20033;-77
2022/01/07 11:56:02;;;;;;;15.73;7.93;;;-0.20;54.00;;;;;;5027394;28;20024;-77
2022/01/07 11:58:43;;;;;;;14.93;8.38;;;-0.20;53.20;;;;;;5012280;28;20020;-77
2022/01/07 12:01:37;;;;;;;22.23;9.77;;;-0.10;53.60;;;;;;5009609;28;20043;-77
2022/01/07 12:04:21;;;;;;;16.67;8.82;;;-0.10;53.30;;;;;;5030478;28;20032;-77
2022/01/07 12:06:48;;;;;;;19.90;9.18;;;0.00;52.50;;;;;;5051866;28;20037;-77
2022/01/07 12:09:20;;;;;;;17.98;8.35;;;0.00;52.40;;;;;;5017400;28;20074;-77
2022/01/07 12:11:58;;;;;;;14.93;8.05;;;0.00;52.50;;;;;;5037840;28;20025;-77
2022/01/07 12:14:27;;;;;;;17.67;9.30;;;0.00;51.80;;;;;;5017354;28;20479;-78
2022/01/07 12:16:58;;;;;;;18.40;9.60;;;0.00;50.70;;;;;;5026518;28;20034;-78
2022/01/07 12:19:54;;;;;;;17.42;9.48;;;0.00;51.70;;;;;;5039872;28;20496;-78
2022/01/07 12:22:20;;;;;;;25.25;10.55;;;0.00;52.10;;;;;;5038379;28;20037;-77
2022/01/07 12:24:48;;;;;;;18.98;9.57;;;0.00;51.40;;;;;;5023069;28;20168;-78
2022/01/07 12:27:20;;;;;;;16.02;9.27;;;0.10;51.10;;;;;;5026145;28;20071;-77
2022/01/07 12:29:50;;;;;;;19.67;9.48;;;0.10;52.20;;;;;;5047779;28;20375;-78
2022/01/07 12:32:18;;;;;;;18.95;10.20;;;0.10;51.90;;;;;;5022348;28;20021;-77
2022/01/07 12:34:47;;;;;;;17.80;8.50;;;0.10;53.90;;;;;;5026255;28;20021;-78